sensor_id;sensor_type;location;lat;lon;timestamp;pressure;altitude;pressure_sealevel;temperature;humidity
60019;BME280;45870;42.528;26.740;2023-03-17T00:01:43;99884.00;;;8.82;55.18
60019;BME280;45870;42.528;26.740;2023-03-17T00:06:27;99882.34;;;9.30;54.53
60019;BME280;45870;42.528;26.740;2023-03-17T00:08:54;99881.66;;;9.17;54.07
60019;BME280;45870;42.528;26.740;2023-03-17T00:11:20;99885.22;;;9.11;53.94
60019;BME280;45870;42.528;26.740;2023-03-17T00:13:46;99895.31;;;9.15;53.73
60019;BME280;45870;42.528;26.740;2023-03-17T00:16:19;99827.66;;;8.56;54.48
60019;BME280;45870;42.528;26.740;2023-03-17T00:18:48;99889.53;;;8.87;54.86
60019;BME280;45870;42.528;26.740;2023-03-17T00:21:18;99887.28;;;8.52;55.35
60019;BME280;45870;42.528;26.740;2023-03-17T00:23:49;99871.97;;;8.09;55.99
60019;BME280;45870;42.528;26.740;2023-03-17T00:26:17;99874.94;;;8.38;55.11
60019;BME280;45870;42.528;26.740;2023-03-17T00:28:43;99795.47;;;7.67;55.77
60019;BME280;45870;42.528;26.740;2023-03-17T00:31:13;99844.75;;;8.36;54.77
60019;BME280;45870;42.528;26.740;2023-03-17T00:33:39;99677.06;;;7.24;54.63
60019;BME280;45870;42.528;26.740;2023-03-17T00:36:14;99746.88;;;7.68;55.06
60019;BME280;45870;42.528;26.740;2023-03-17T00:38:40;99900.34;;;8.49;55.21
60019;BME280;45870;42.528;26.740;2023-03-17T00:41:07;99893.69;;;8.51;54.42
60019;BME280;45870;42.528;26.740;2023-03-17T00:43:34;99899.13;;;8.76;54.52
60019;BME280;45870;42.528;26.740;2023-03-17T00:46:00;99898.47;;;8.81;54.54
60019;BME280;45870;42.528;26.740;2023-03-17T00:48:27;99874.81;;;8.65;54.78
60019;BME280;45870;42.528;26.740;2023-03-17T00:50:54;99849.50;;;8.34;54.34
60019;BME280;45870;42.528;26.740;2023-03-17T00:53:20;99894.53;;;9.08;53.58
60019;BME280;45870;42.528;26.740;2023-03-17T00:55:47;99886.84;;;8.11;55.28
60019;BME280;45870;42.528;26.740;2023-03-17T00:58:26;99910.13;;;8.37;54.36
60019;BME280;45870;42.528;26.740;2023-03-17T01:00:54;99841.69;;;8.33;54.13
60019;BME280;45870;42.528;26.740;2023-03-17T01:03:20;99897.28;;;7.88;55.43
60019;BME280;45870;42.528;26.740;2023-03-17T01:05:47;99827.72;;;8.49;53.82
60019;BME280;45870;42.528;26.740;2023-03-17T01:08:16;99920.50;;;8.33;55.65
60019;BME280;45870;42.528;26.740;2023-03-17T01:10:42;99905.81;;;8.67;55.03
60019;BME280;45870;42.528;26.740;2023-03-17T01:13:12;99904.44;;;8.51;53.79
60019;BME280;45870;42.528;26.740;2023-03-17T01:15:44;99913.22;;;8.34;54.77
60019;BME280;45870;42.528;26.740;2023-03-17T01:18:12;99875.84;;;8.64;54.10
60019;BME280;45870;42.528;26.740;2023-03-17T01:20:40;99847.88;;;7.82;54.45
60019;BME280;45870;42.528;26.740;2023-03-17T01:23:07;99811.47;;;7.22;55.98
60019;BME280;45870;42.528;26.740;2023-03-17T01:25:34;99915.06;;;8.78;53.67
60019;BME280;45870;42.528;26.740;2023-03-17T01:28:00;99850.94;;;8.43;53.72
60019;BME280;45870;42.528;26.740;2023-03-17T01:30:34;99900.25;;;8.69;53.05
60019;BME280;45870;42.528;26.740;2023-03-17T01:33:02;99913.03;;;8.73;54.09
60019;BME280;45870;42.528;26.740;2023-03-17T01:35:28;99917.47;;;8.61;54.64
60019;BME280;45870;42.528;26.740;2023-03-17T01:37:55;99921.03;;;8.80;54.22
60019;BME280;45870;42.528;26.740;2023-03-17T01:40:30;99923.13;;;8.78;54.57
60019;BME280;45870;42.528;26.740;2023-03-17T01:43:16;99866.03;;;8.38;53.63
60019;BME280;45870;42.528;26.740;2023-03-17T01:49:03;99932.56;;;8.56;54.81
60019;BME280;45870;42.528;26.740;2023-03-17T01:57:09;99943.81;;;8.46;54.12
60019;BME280;45870;42.528;26.740;2023-03-17T01:59:41;99944.03;;;8.82;52.62
60019;BME280;45870;42.528;26.740;2023-03-17T02:02:11;99748.22;;;8.22;50.95
60019;BME280;45870;42.528;26.740;2023-03-17T02:04:37;99897.88;;;8.79;52.73
60019;BME280;45870;42.528;26.740;2023-03-17T02:07:05;99944.13;;;8.12;54.91
60019;BME280;45870;42.528;26.740;2023-03-17T02:09:31;99897.47;;;8.44;53.72
60019;BME280;45870;42.528;26.740;2023-03-17T02:11:59;99895.19;;;8.41;53.15
60019;BME280;45870;42.528;26.740;2023-03-17T02:14:26;99932.50;;;8.24;53.94
60019;BME280;45870;42.528;26.740;2023-03-17T02:16:52;99921.06;;;7.71;54.72
60019;BME280;45870;42.528;26.740;2023-03-17T02:19:18;99956.44;;;9.39;51.67
60019;BME280;45870;42.528;26.740;2023-03-17T02:21:53;99927.19;;;8.56;52.61
60019;BME280;45870;42.528;26.740;2023-03-17T02:27:31;99959.22;;;9.01;51.87
60019;BME280;45870;42.528;26.740;2023-03-17T02:29:59;99949.28;;;8.13;54.35
60019;BME280;45870;42.528;26.740;2023-03-17T02:32:25;99966.84;;;9.11;52.41
60019;BME280;45870;42.528;26.740;2023-03-17T02:34:51;99947.91;;;8.93;52.34
60019;BME280;45870;42.528;26.740;2023-03-17T02:37:18;99905.81;;;8.98;51.28
60019;BME280;45870;42.528;26.740;2023-03-17T02:39:45;99772.91;;;7.10;53.91
60019;BME280;45870;42.528;26.740;2023-03-17T02:42:12;99975.03;;;8.91;52.81
60019;BME280;45870;42.528;26.740;2023-03-17T02:44:38;99953.34;;;8.80;52.39
60019;BME280;45870;42.528;26.740;2023-03-17T02:47:05;99982.63;;;8.63;53.21
60019;BME280;45870;42.528;26.740;2023-03-17T02:49:32;99983.09;;;8.53;51.90
60019;BME280;45870;42.528;26.740;2023-03-17T02:51:59;99899.81;;;7.63;53.01
60019;BME280;45870;42.528;26.740;2023-03-17T02:54:25;99979.88;;;9.14;52.37
60019;BME280;45870;42.528;26.740;2023-03-17T02:56:51;99941.59;;;8.74;51.21
60019;BME280;45870;42.528;26.740;2023-03-17T02:59:17;99953.25;;;8.04;52.64
60019;BME280;45870;42.528;26.740;2023-03-17T03:01:43;99983.34;;;8.83;51.29
60019;BME280;45870;42.528;26.740;2023-03-17T03:04:09;99988.44;;;8.98;51.36
60019;BME280;45870;42.528;26.740;2023-03-17T03:06:36;99996.88;;;8.13;53.46
60019;BME280;45870;42.528;26.740;2023-03-17T03:09:02;99999.94;;;8.29;52.60
60019;BME280;45870;42.528;26.740;2023-03-17T03:11:28;99998.47;;;8.27;53.34
60019;BME280;45870;42.528;26.740;2023-03-17T03:13:54;99945.09;;;7.60;53.01
60019;BME280;45870;42.528;26.740;2023-03-17T03:16:20;99960.09;;;8.58;51.62
60019;BME280;45870;42.528;26.740;2023-03-17T03:18:46;99990.94;;;7.38;54.77
60019;BME280;45870;42.528;26.740;2023-03-17T03:21:12;100009.78;;;8.48;52.19
60019;BME280;45870;42.528;26.740;2023-03-17T03:23:38;100004.41;;;8.48;51.67
60019;BME280;45870;42.528;26.740;2023-03-17T03:26:04;99947.66;;;8.94;50.23
60019;BME280;45870;42.528;26.740;2023-03-17T03:28:30;100009.53;;;8.63;51.32
60019;BME280;45870;42.528;26.740;2023-03-17T03:30:57;100007.31;;;8.91;50.31
60019;BME280;45870;42.528;26.740;2023-03-17T03:33:23;99834.56;;;7.43;51.39
60019;BME280;45870;42.528;26.740;2023-03-17T03:35:48;100016.56;;;8.64;51.14
60019;BME280;45870;42.528;26.740;2023-03-17T03:38:14;99919.84;;;7.67;51.81
60019;BME280;45870;42.528;26.740;2023-03-17T03:40:40;100018.63;;;8.62;51.27
60019;BME280;45870;42.528;26.740;2023-03-17T03:43:05;100015.03;;;8.17;51.92
60019;BME280;45870;42.528;26.740;2023-03-17T03:45:31;99951.56;;;8.67;50.57
60019;BME280;45870;42.528;26.740;2023-03-17T03:47:57;100029.41;;;8.62;50.99
60019;BME280;45870;42.528;26.740;2023-03-17T03:50:23;100003.06;;;9.09;49.69
60019;BME280;45870;42.528;26.740;2023-03-17T03:52:49;99968.78;;;8.02;51.57
60019;BME280;45870;42.528;26.740;2023-03-17T03:55:15;100012.19;;;8.70;49.81
60019;BME280;45870;42.528;26.740;2023-03-17T03:57:42;99999.94;;;9.43;48.90
60019;BME280;45870;42.528;26.740;2023-03-17T04:00:08;100028.66;;;9.56;48.37
60019;BME280;45870;42.528;26.740;2023-03-17T04:02:35;100035.03;;;9.61;48.41
60019;BME280;45870;42.528;26.740;2023-03-17T04:05:01;99977.66;;;8.67;49.51
60019;BME280;45870;42.528;26.740;2023-03-17T04:07:28;100024.25;;;9.86;47.37
60019;BME280;45870;42.528;26.740;2023-03-17T04:09:54;100018.75;;;9.49;48.02
60019;BME280;45870;42.528;26.740;2023-03-17T04:12:20;100005.53;;;10.16;47.22
60019;BME280;45870;42.528;26.740;2023-03-17T04:14:46;100042.34;;;9.23;48.82
60019;BME280;45870;42.528;26.740;2023-03-17T04:17:12;100045.03;;;9.54;48.81
60019;BME280;45870;42.528;26.740;2023-03-17T04:19:39;100049.91;;;9.08;49.20
60019;BME280;45870;42.528;26.740;2023-03-17T04:22:06;100034.34;;;9.10;48.77
60019;BME280;45870;42.528;26.740;2023-03-17T04:24:34;100015.59;;;8.45;50.92
60019;BME280;45870;42.528;26.740;2023-03-17T04:27:00;100048.28;;;9.00;49.88
60019;BME280;45870;42.528;26.740;2023-03-17T04:29:27;100004.25;;;8.24;50.39
60019;BME280;45870;42.528;26.740;2023-03-17T04:31:53;99820.75;;;7.26;49.80
60019;BME280;45870;42.528;26.740;2023-03-17T04:34:19;100006.97;;;8.81;49.08
60019;BME280;45870;42.528;26.740;2023-03-17T04:36:46;100056.19;;;8.44;50.82
60019;BME280;45870;42.528;26.740;2023-03-17T04:39:12;100050.44;;;8.85;49.56
60019;BME280;45870;42.528;26.740;2023-03-17T04:41:38;99844.28;;;7.44;49.93
60019;BME280;45870;42.528;26.740;2023-03-17T04:44:04;100063.44;;;8.30;50.23
60019;BME280;45870;42.528;26.740;2023-03-17T04:46:30;99956.34;;;8.08;49.75
60019;BME280;45870;42.528;26.740;2023-03-17T04:48:56;99879.44;;;7.10;50.43
60019;BME280;45870;42.528;26.740;2023-03-17T04:51:23;99981.63;;;8.58;49.00
60019;BME280;45870;42.528;26.740;2023-03-17T04:53:49;100083.78;;;9.60;48.08
60019;BME280;45870;42.528;26.740;2023-03-17T04:56:15;100086.09;;;9.81;47.05
60019;BME280;45870;42.528;26.740;2023-03-17T04:58:41;99773.75;;;7.68;47.10
60019;BME280;45870;42.528;26.740;2023-03-17T05:01:07;100094.31;;;10.17;46.70
60019;BME280;45870;42.528;26.740;2023-03-17T05:03:33;100077.56;;;9.59;48.04
60019;BME280;45870;42.528;26.740;2023-03-17T05:06:00;100033.44;;;9.78;46.53
60019;BME280;45870;42.528;26.740;2023-03-17T05:08:27;100095.75;;;10.20;47.41
60019;BME280;45870;42.528;26.740;2023-03-17T05:10:55;100103.28;;;10.36;46.10
60019;BME280;45870;42.528;26.740;2023-03-17T05:13:21;100096.41;;;8.77;49.16
60019;BME280;45870;42.528;26.740;2023-03-17T05:15:49;100103.53;;;8.58;50.10
60019;BME280;45870;42.528;26.740;2023-03-17T05:18:17;100117.91;;;9.34;46.99
60019;BME280;45870;42.528;26.740;2023-03-17T05:20:43;100104.88;;;9.63;46.00
60019;BME280;45870;42.528;26.740;2023-03-17T05:23:09;100084.38;;;9.30;47.27
60019;BME280;45870;42.528;26.740;2023-03-17T05:25:36;100115.59;;;8.29;49.31
60019;BME280;45870;42.528;26.740;2023-03-17T05:28:02;100111.91;;;8.88;48.24
60019;BME280;45870;42.528;26.740;2023-03-17T05:30:28;99885.34;;;7.64;47.62
60019;BME280;45870;42.528;26.740;2023-03-17T05:32:54;100047.53;;;8.29;48.34
60019;BME280;45870;42.528;26.740;2023-03-17T05:35:20;100125.03;;;10.16;45.92
60019;BME280;45870;42.528;26.740;2023-03-17T05:37:46;100137.88;;;9.58;46.43
60019;BME280;45870;42.528;26.740;2023-03-17T05:40:13;100099.09;;;8.77;48.49
60019;BME280;45870;42.528;26.740;2023-03-17T05:42:42;100132.69;;;9.25;47.87
60019;BME280;45870;42.528;26.740;2023-03-17T05:45:08;100139.31;;;9.61;47.07
60019;BME280;45870;42.528;26.740;2023-03-17T05:47:35;100139.47;;;8.90;47.64
60019;BME280;45870;42.528;26.740;2023-03-17T05:50:02;100139.53;;;8.64;47.51
60019;BME280;45870;42.528;26.740;2023-03-17T05:52:29;100102.34;;;8.98;47.06
60019;BME280;45870;42.528;26.740;2023-03-17T05:54:55;100084.13;;;9.00;47.27
60019;BME280;45870;42.528;26.740;2023-03-17T05:57:21;100144.22;;;8.88;47.00
60019;BME280;45870;42.528;26.740;2023-03-17T05:59:47;99863.22;;;7.69;45.79
60019;BME280;45870;42.528;26.740;2023-03-17T06:02:15;100124.13;;;8.84;46.25
60019;BME280;45870;42.528;26.740;2023-03-17T06:04:43;100165.75;;;9.77;45.87
60019;BME280;45870;42.528;26.740;2023-03-17T06:07:08;100133.53;;;9.19;46.23
60019;BME280;45870;42.528;26.740;2023-03-17T06:09:35;100164.63;;;9.91;45.32
60019;BME280;45870;42.528;26.740;2023-03-17T06:12:01;100157.22;;;9.48;45.07
60019;BME280;45870;42.528;26.740;2023-03-17T06:14:26;100117.66;;;8.98;45.20
60019;BME280;45870;42.528;26.740;2023-03-17T06:19:27;100102.63;;;8.77;46.31
60019;BME280;45870;42.528;26.740;2023-03-17T06:21:53;100191.56;;;9.09;45.55
60019;BME280;45870;42.528;26.740;2023-03-17T06:24:19;100185.94;;;9.17;46.83
60019;BME280;45870;42.528;26.740;2023-03-17T06:26:44;100180.09;;;10.02;44.03
60019;BME280;45870;42.528;26.740;2023-03-17T06:29:11;100186.22;;;9.46;45.84
60019;BME280;45870;42.528;26.740;2023-03-17T06:31:37;100193.03;;;9.56;44.58
60019;BME280;45870;42.528;26.740;2023-03-17T06:34:04;100188.78;;;8.25;46.46
60019;BME280;45870;42.528;26.740;2023-03-17T06:36:31;100187.38;;;10.33;43.53
60019;BME280;45870;42.528;26.740;2023-03-17T06:38:58;100202.84;;;8.86;44.23
60019;BME280;45870;42.528;26.740;2023-03-17T06:41:25;100186.78;;;9.62;44.52
60019;BME280;45870;42.528;26.740;2023-03-17T06:43:51;100202.19;;;8.97;44.61
60019;BME280;45870;42.528;26.740;2023-03-17T06:46:18;100190.44;;;8.72;45.20
60019;BME280;45870;42.528;26.740;2023-03-17T06:48:43;100180.59;;;9.10;45.27
60019;BME280;45870;42.528;26.740;2023-03-17T06:51:13;100180.16;;;9.13;44.89
60019;BME280;45870;42.528;26.740;2023-03-17T06:53:50;100138.09;;;8.61;44.38
60019;BME280;45870;42.528;26.740;2023-03-17T06:56:18;100185.31;;;9.21;43.41
60019;BME280;45870;42.528;26.740;2023-03-17T06:58:44;100183.19;;;8.79;45.43
60019;BME280;45870;42.528;26.740;2023-03-17T07:01:16;100190.72;;;9.21;44.65
60019;BME280;45870;42.528;26.740;2023-03-17T07:03:43;100183.63;;;9.27;42.90
60019;BME280;45870;42.528;26.740;2023-03-17T07:06:09;100181.44;;;9.55;43.36
60019;BME280;45870;42.528;26.740;2023-03-17T07:08:36;100155.59;;;10.03;42.76
60019;BME280;45870;42.528;26.740;2023-03-17T07:11:02;100161.53;;;10.19;42.41
60019;BME280;45870;42.528;26.740;2023-03-17T07:13:29;100176.63;;;9.13;44.02
60019;BME280;45870;42.528;26.740;2023-03-17T07:16:00;100181.72;;;8.83;43.91
60019;BME280;45870;42.528;26.740;2023-03-17T07:18:28;100175.50;;;9.71;42.57
60019;BME280;45870;42.528;26.740;2023-03-17T07:20:59;100189.44;;;9.24;43.40
60019;BME280;45870;42.528;26.740;2023-03-17T07:23:26;100154.56;;;8.91;43.80
60019;BME280;45870;42.528;26.740;2023-03-17T07:25:53;100121.03;;;8.80;43.49
60019;BME280;45870;42.528;26.740;2023-03-17T07:28:19;100189.34;;;9.43;42.68
60019;BME280;45870;42.528;26.740;2023-03-17T07:30:49;100187.66;;;8.98;43.57
60019;BME280;45870;42.528;26.740;2023-03-17T07:33:16;100189.78;;;9.85;41.19
60019;BME280;45870;42.528;26.740;2023-03-17T07:35:46;100190.09;;;11.12;40.07
60019;BME280;45870;42.528;26.740;2023-03-17T07:38:14;100183.56;;;10.16;41.12
60019;BME280;45870;42.528;26.740;2023-03-17T07:40:42;100195.06;;;10.29;41.62
60019;BME280;45870;42.528;26.740;2023-03-17T07:43:08;100186.78;;;11.28;40.63
60019;BME280;45870;42.528;26.740;2023-03-17T07:45:34;100185.50;;;10.94;41.34
60019;BME280;45870;42.528;26.740;2023-03-17T07:48:02;100209.38;;;10.79;40.94
60019;BME280;45870;42.528;26.740;2023-03-17T07:50:31;100190.63;;;9.79;41.27
60019;BME280;45870;42.528;26.740;2023-03-17T07:52:57;100200.19;;;10.62;39.25
60019;BME280;45870;42.528;26.740;2023-03-17T07:55:23;100012.88;;;10.27;39.12
60019;BME280;45870;42.528;26.740;2023-03-17T07:57:49;100189.09;;;12.56;37.45
60019;BME280;45870;42.528;26.740;2023-03-17T08:00:16;100206.16;;;11.91;37.21
60019;BME280;45870;42.528;26.740;2023-03-17T08:02:42;100219.88;;;10.63;39.98
60019;BME280;45870;42.528;26.740;2023-03-17T08:05:09;100202.00;;;10.43;39.48
60019;BME280;45870;42.528;26.740;2023-03-17T08:07:37;100194.94;;;10.67;39.71
60019;BME280;45870;42.528;26.740;2023-03-17T08:10:07;100188.19;;;10.33;41.52
60019;BME280;45870;42.528;26.740;2023-03-17T08:12:34;100199.03;;;10.27;41.15
60019;BME280;45870;42.528;26.740;2023-03-17T08:14:59;100158.25;;;10.10;39.77
60019;BME280;45870;42.528;26.740;2023-03-17T08:17:29;100192.28;;;11.22;38.88
60019;BME280;45870;42.528;26.740;2023-03-17T08:19:55;100184.50;;;11.43;39.91
60019;BME280;45870;42.528;26.740;2023-03-17T08:22:22;100114.38;;;11.48;36.10
60019;BME280;45870;42.528;26.740;2023-03-17T08:24:48;100186.44;;;12.02;36.83
60019;BME280;45870;42.528;26.740;2023-03-17T08:27:14;100192.94;;;11.53;38.48
60019;BME280;45870;42.528;26.740;2023-03-17T08:29:40;100200.69;;;11.62;38.27
60019;BME280;45870;42.528;26.740;2023-03-17T08:32:08;100200.34;;;12.29;38.14
60019;BME280;45870;42.528;26.740;2023-03-17T08:34:34;100176.25;;;12.28;36.87
60019;BME280;45870;42.528;26.740;2023-03-17T08:37:00;100168.00;;;12.81;36.92
60019;BME280;45870;42.528;26.740;2023-03-17T08:39:27;100176.13;;;12.81;38.49
60019;BME280;45870;42.528;26.740;2023-03-17T08:41:54;100207.28;;;12.25;38.51
60019;BME280;45870;42.528;26.740;2023-03-17T08:44:20;100195.66;;;11.65;37.24
60019;BME280;45870;42.528;26.740;2023-03-17T08:46:46;100200.56;;;10.84;39.80
60019;BME280;45870;42.528;26.740;2023-03-17T08:49:14;100169.38;;;11.24;38.21
60019;BME280;45870;42.528;26.740;2023-03-17T08:51:42;100204.63;;;11.95;37.73
60019;BME280;45870;42.528;26.740;2023-03-17T08:54:10;100188.63;;;11.94;38.37
60019;BME280;45870;42.528;26.740;2023-03-17T08:56:38;100183.34;;;11.69;37.54
60019;BME280;45870;42.528;26.740;2023-03-17T08:59:08;100181.91;;;12.38;38.03
60019;BME280;45870;42.528;26.740;2023-03-17T09:01:34;100177.66;;;10.50;38.72
60019;BME280;45870;42.528;26.740;2023-03-17T09:04:02;100179.34;;;11.24;38.27
60019;BME280;45870;42.528;26.740;2023-03-17T09:06:27;100179.31;;;12.31;38.32
60019;BME280;45870;42.528;26.740;2023-03-17T09:08:53;100188.81;;;12.22;37.10
60019;BME280;45870;42.528;26.740;2023-03-17T09:11:22;100173.91;;;11.78;37.36
60019;BME280;45870;42.528;26.740;2023-03-17T09:13:48;100195.06;;;12.23;36.14
60019;BME280;45870;42.528;26.740;2023-03-17T09:16:15;100191.28;;;11.82;35.29
60019;BME280;45870;42.528;26.740;2023-03-17T09:18:43;100176.47;;;10.64;36.82
60019;BME280;45870;42.528;26.740;2023-03-17T09:21:11;99990.44;;;9.65;38.77
60019;BME280;45870;42.528;26.740;2023-03-17T09:23:38;100112.34;;;11.14;37.28
60019;BME280;45870;42.528;26.740;2023-03-17T09:26:04;100183.16;;;11.52;38.24
60019;BME280;45870;42.528;26.740;2023-03-17T09:28:30;100176.59;;;12.20;38.57
60019;BME280;45870;42.528;26.740;2023-03-17T09:31:02;100085.94;;;11.58;36.25
60019;BME280;45870;42.528;26.740;2023-03-17T09:33:28;100185.06;;;12.46;36.85
60019;BME280;45870;42.528;26.740;2023-03-17T09:35:55;100176.81;;;11.77;36.77
60019;BME280;45870;42.528;26.740;2023-03-17T09:38:25;100189.28;;;11.78;37.49
60019;BME280;45870;42.528;26.740;2023-03-17T09:43:43;100160.28;;;11.85;35.98
60019;BME280;45870;42.528;26.740;2023-03-17T09:46:34;100167.25;;;11.44;35.99
60019;BME280;45870;42.528;26.740;2023-03-17T09:51:34;100199.38;;;11.34;35.78
60019;BME280;45870;42.528;26.740;2023-03-17T09:54:06;100172.91;;;11.25;36.47
60019;BME280;45870;42.528;26.740;2023-03-17T09:56:39;100150.53;;;12.07;35.90
60019;BME280;45870;42.528;26.740;2023-03-17T10:01:41;100078.53;;;11.71;35.35
60019;BME280;45870;42.528;26.740;2023-03-17T10:04:09;100168.81;;;11.52;36.66
60019;BME280;45870;42.528;26.740;2023-03-17T10:06:42;100171.03;;;11.73;35.50
60019;BME280;45870;42.528;26.740;2023-03-17T10:09:20;100200.97;;;11.90;35.56
60019;BME280;45870;42.528;26.740;2023-03-17T10:17:16;100188.84;;;12.45;34.82
60019;BME280;45870;42.528;26.740;2023-03-17T10:19:54;100203.47;;;11.25;36.94
60019;BME280;45870;42.528;26.740;2023-03-17T10:25:08;100195.59;;;12.01;35.46
60019;BME280;45870;42.528;26.740;2023-03-17T10:27:36;100199.88;;;12.21;35.84
60019;BME280;45870;42.528;26.740;2023-03-17T10:30:05;100178.13;;;12.74;34.60
60019;BME280;45870;42.528;26.740;2023-03-17T10:32:42;100191.63;;;13.43;34.47
60019;BME280;45870;42.528;26.740;2023-03-17T10:35:10;100181.63;;;12.16;36.32
60019;BME280;45870;42.528;26.740;2023-03-17T10:37:36;100187.56;;;12.94;34.53
60019;BME280;45870;42.528;26.740;2023-03-17T10:40:05;100177.09;;;12.51;34.97
60019;BME280;45870;42.528;26.740;2023-03-17T10:42:45;100180.63;;;12.75;35.24
60019;BME280;45870;42.528;26.740;2023-03-17T10:45:27;100186.69;;;11.83;34.77
60019;BME280;45870;42.528;26.740;2023-03-17T10:47:57;100180.28;;;11.47;34.26
60019;BME280;45870;42.528;26.740;2023-03-17T10:50:29;100118.63;;;11.86;35.35
60019;BME280;45870;42.528;26.740;2023-03-17T10:55:38;100170.13;;;12.79;33.90
60019;BME280;45870;42.528;26.740;2023-03-17T11:00:33;100163.41;;;13.05;34.09
60019;BME280;45870;42.528;26.740;2023-03-17T11:03:10;100152.09;;;13.19;33.15
60019;BME280;45870;42.528;26.740;2023-03-17T11:05:39;100161.16;;;13.13;34.14
60019;BME280;45870;42.528;26.740;2023-03-17T11:08:14;100177.88;;;12.98;34.13
60019;BME280;45870;42.528;26.740;2023-03-17T11:10:41;100159.78;;;13.95;32.05
60019;BME280;45870;42.528;26.740;2023-03-17T11:13:07;100171.19;;;12.78;34.36
60019;BME280;45870;42.528;26.740;2023-03-17T11:15:46;100169.47;;;13.35;32.34
60019;BME280;45870;42.528;26.740;2023-03-17T11:18:27;100121.34;;;13.87;32.73
60019;BME280;45870;42.528;26.740;2023-03-17T11:31:33;100152.28;;;13.29;33.74
60019;BME280;45870;42.528;26.740;2023-03-17T11:36:38;100149.13;;;13.09;34.12
60019;BME280;45870;42.528;26.740;2023-03-17T11:39:16;100155.84;;;13.18;33.89
60019;BME280;45870;42.528;26.740;2023-03-17T11:41:57;100168.47;;;13.01;32.38
60019;BME280;45870;42.528;26.740;2023-03-17T11:58:05;100112.19;;;13.60;33.42
60019;BME280;45870;42.528;26.740;2023-03-17T12:00:48;100156.34;;;14.17;30.53
60019;BME280;45870;42.528;26.740;2023-03-17T12:03:21;100160.44;;;14.02;31.81
60019;BME280;45870;42.528;26.740;2023-03-17T12:05:54;100147.69;;;13.30;32.96
60019;BME280;45870;42.528;26.740;2023-03-17T12:08:28;100144.19;;;13.18;33.26
60019;BME280;45870;42.528;26.740;2023-03-17T12:10:59;100142.81;;;13.88;33.31
60019;BME280;45870;42.528;26.740;2023-03-17T12:16:30;100139.84;;;13.05;31.72
60019;BME280;45870;42.528;26.740;2023-03-17T12:19:14;100142.88;;;13.20;34.52
60019;BME280;45870;42.528;26.740;2023-03-17T12:21:44;100155.81;;;13.58;31.28
60019;BME280;45870;42.528;26.740;2023-03-17T12:24:18;100141.28;;;13.92;30.58
60019;BME280;45870;42.528;26.740;2023-03-17T12:27:06;100145.91;;;13.35;31.93
60019;BME280;45870;42.528;26.740;2023-03-17T12:29:50;100141.16;;;13.42;31.15
60019;BME280;45870;42.528;26.740;2023-03-17T12:32:40;100145.69;;;13.82;30.76
60019;BME280;45870;42.528;26.740;2023-03-17T12:35:24;99943.13;;;12.92;31.81
60019;BME280;45870;42.528;26.740;2023-03-17T12:37:53;100136.66;;;14.26;30.11
60019;BME280;45870;42.528;26.740;2023-03-17T12:40:31;100122.44;;;14.19;31.11
60019;BME280;45870;42.528;26.740;2023-03-17T12:48:22;100156.38;;;13.72;32.11
60019;BME280;45870;42.528;26.740;2023-03-17T12:51:25;100123.69;;;13.10;29.21
60019;BME280;45870;42.528;26.740;2023-03-17T12:53:55;100137.63;;;13.87;29.95
60019;BME280;45870;42.528;26.740;2023-03-17T12:56:28;100141.13;;;13.99;30.31
60019;BME280;45870;42.528;26.740;2023-03-17T12:59:07;100137.66;;;14.04;30.49
60019;BME280;45870;42.528;26.740;2023-03-17T13:01:37;100147.56;;;13.36;30.83
60019;BME280;45870;42.528;26.740;2023-03-17T13:07:21;100135.72;;;15.53;28.59
60019;BME280;45870;42.528;26.740;2023-03-17T13:10:18;100142.59;;;14.57;29.05
60019;BME280;45870;42.528;26.740;2023-03-17T13:21:10;100151.88;;;13.94;31.58
60019;BME280;45870;42.528;26.740;2023-03-17T13:26:14;100116.19;;;15.34;27.22
60019;BME280;45870;42.528;26.740;2023-03-17T13:28:48;100078.06;;;15.56;26.74
60019;BME280;45870;42.528;26.740;2023-03-17T13:34:12;100147.25;;;15.86;27.33
60019;BME280;45870;42.528;26.740;2023-03-17T13:45:07;100140.97;;;15.59;27.11
60019;BME280;45870;42.528;26.740;2023-03-17T13:47:37;100141.34;;;15.24;28.09
60019;BME280;45870;42.528;26.740;2023-03-17T13:50:24;100119.72;;;14.91;27.43
60019;BME280;45870;42.528;26.740;2023-03-17T13:52:56;100100.16;;;16.23;26.83
60019;BME280;45870;42.528;26.740;2023-03-17T13:55:37;100145.78;;;16.06;26.55
60019;BME280;45870;42.528;26.740;2023-03-17T14:00:34;100132.50;;;15.12;27.43
60019;BME280;45870;42.528;26.740;2023-03-17T14:05:37;100084.25;;;14.59;28.57
60019;BME280;45870;42.528;26.740;2023-03-17T14:08:05;100153.66;;;13.72;29.37
60019;BME280;45870;42.528;26.740;2023-03-17T14:10:33;100059.25;;;13.57;28.89
60019;BME280;45870;42.528;26.740;2023-03-17T14:18:32;100144.97;;;14.70;28.44
60019;BME280;45870;42.528;26.740;2023-03-17T14:21:01;100115.09;;;15.57;26.40
60019;BME280;45870;42.528;26.740;2023-03-17T14:23:29;100172.28;;;16.15;25.71
60019;BME280;45870;42.528;26.740;2023-03-17T14:25:57;100174.75;;;13.41;30.07
60019;BME280;45870;42.528;26.740;2023-03-17T14:28:27;100150.44;;;13.75;28.16
60019;BME280;45870;42.528;26.740;2023-03-17T14:30:58;100157.66;;;13.41;29.21
60019;BME280;45870;42.528;26.740;2023-03-17T14:33:28;100158.50;;;13.86;28.67
60019;BME280;45870;42.528;26.740;2023-03-17T14:35:58;100119.06;;;14.12;27.35
60019;BME280;45870;42.528;26.740;2023-03-17T14:38:35;100151.25;;;14.70;28.03
60019;BME280;45870;42.528;26.740;2023-03-17T14:43:38;100157.34;;;14.99;26.99
60019;BME280;45870;42.528;26.740;2023-03-17T14:46:06;100158.03;;;14.34;27.12
60019;BME280;45870;42.528;26.740;2023-03-17T14:48:37;100153.63;;;14.67;27.01